WAT weather

Waterford Airport
Waterford, County Waterford, Ireland

Public forecast

Using degrees Celsius for public forecast. Weather courtesy of forecast.io.

Current aviation weather report (METAR) for Waterford Airport

Retrieved 2020/07/05 11:00 UTC (11 minutes ago):

EIWF 051100Z 28018G30KT 250V320 9999 FEW020CB BKN040 16/08 Q1011

Closest aviation forecast (TAF) to Waterford Airport

Closest forecast is Cork Airport, 55.9 nm (103.5 km) WSW. Retrieved 2020/07/05 06:11 UTC (5 hours ago):

TAF EICK 050500Z 0506/0606 26013KT 9999 FEW017 SCT030 TEMPO 0506/0509 27015G26KT BECMG 0509/0511 27015G26KT PROB30 TEMPO 0510/0515 SCT018CB BECMG 0511/0513 28022G36KT BECMG 0519/0521 29016G26KT BECMG 0523/0601 30015KT TEMPO 0601/0604 31016G26KT